<?xml version="1.0" encoding="UTF-8" standalone="no" ?>
<gpx xmlns="http://www.topografix.com/GPX/1/1" creator="MapSource 6.11.6" version="1.1" xmlns:xsi="http://www.w3.org/2001/XMLSchema-instance" xsi:schemaLocation="http://www.topografix.com/GPX/1/1 http://www.topografix.com/GPX/1/1/gpx.xsd">

  <metadata>
    <link href="http://www.garmin.com">
      <text>Garmin International</text>
    </link>
    <time>2009-02-21T12:01:53Z</time>
    <bounds maxlat="50.657189" maxlon="6.413834" minlat="50.626756" minlon="6.376229"/>
  </metadata>

  <trk>
    <name>Schmidt-Woffelsbach-Schmidt</name>
    <extensions>
      <gpxx:TrackExtension xmlns:gpxx="http://www.garmin.com/xmlschemas/GpxExtensions/v3" xmlns:xsi="http://www.w3.org/2001/XMLSchema-instance" xsi:schemaLocation="http://www.garmin.com/xmlschemas/GpxExtensions/v3 http://www.garmin.com/xmlschemas/GpxExtensions/v3/GpxExtensionsv3.xsd">
        <gpxx:DisplayColor>White</gpxx:DisplayColor>
      </gpxx:TrackExtension>
    </extensions>
    <trkseg>
      <trkpt lat="50.653691" lon="6.413527">
        <ele>443.305000</ele>
        <time>2009-02-21T13:06:08Z</time>
      </trkpt>
      <trkpt lat="50.653475" lon="6.413480">
        <ele>441.863000</ele>
        <time>2009-02-21T13:06:23Z</time>
      </trkpt>
      <trkpt lat="50.653245" lon="6.413230">
        <ele>440.421000</ele>
        <time>2009-02-21T13:06:44Z</time>
      </trkpt>
      <trkpt lat="50.653189" lon="6.413112">
        <ele>438.979000</ele>
        <time>2009-02-21T13:06:50Z</time>
      </trkpt>
      <trkpt lat="50.653040" lon="6.413002">
        <ele>438.018000</ele>
        <time>2009-02-21T13:07:02Z</time>
      </trkpt>
      <trkpt lat="50.652599" lon="6.412891">
        <ele>433.211000</ele>
        <time>2009-02-21T13:07:34Z</time>
      </trkpt>
      <trkpt lat="50.652403" lon="6.412892">
        <ele>431.769000</ele>
        <time>2009-02-21T13:07:49Z</time>
      </trkpt>
      <trkpt lat="50.652117" lon="6.412987">
        <ele>429.366000</ele>
        <time>2009-02-21T13:08:10Z</time>
      </trkpt>
      <trkpt lat="50.651940" lon="6.412993">
        <ele>428.885000</ele>
        <time>2009-02-21T13:08:23Z</time>
      </trkpt>
      <trkpt lat="50.651780" lon="6.413213">
        <ele>426.963000</ele>
        <time>2009-02-21T13:08:38Z</time>
      </trkpt>
      <trkpt lat="50.651379" lon="6.413300">
        <ele>423.598000</ele>
        <time>2009-02-21T13:09:07Z</time>
      </trkpt>
      <trkpt lat="50.650587" lon="6.412904">
        <ele>412.062000</ele>
        <time>2009-02-21T13:10:07Z</time>
      </trkpt>
      <trkpt lat="50.650300" lon="6.412940">
        <ele>408.217000</ele>
        <time>2009-02-21T13:10:28Z</time>
      </trkpt>
      <trkpt lat="50.650168" lon="6.412848">
        <ele>404.852000</ele>
        <time>2009-02-21T13:10:39Z</time>
      </trkpt>
      <trkpt lat="50.650096" lon="6.412696">
        <ele>403.410000</ele>
        <time>2009-02-21T13:10:47Z</time>
      </trkpt>
      <trkpt lat="50.650048" lon="6.412336">
        <ele>400.526000</ele>
        <time>2009-02-21T13:11:04Z</time>
      </trkpt>
      <trkpt lat="50.649491" lon="6.412441">
        <ele>389.471000</ele>
        <time>2009-02-21T13:11:45Z</time>
      </trkpt>
      <trkpt lat="50.649192" lon="6.412669">
        <ele>383.703000</ele>
        <time>2009-02-21T13:12:09Z</time>
      </trkpt>
      <trkpt lat="50.648669" lon="6.413182">
        <ele>372.648000</ele>
        <time>2009-02-21T13:12:54Z</time>
      </trkpt>
      <trkpt lat="50.648528" lon="6.413124">
        <ele>370.245000</ele>
        <time>2009-02-21T13:13:04Z</time>
      </trkpt>
      <trkpt lat="50.648453" lon="6.413006">
        <ele>368.322000</ele>
        <time>2009-02-21T13:13:12Z</time>
      </trkpt>
      <trkpt lat="50.648309" lon="6.413028">
        <ele>365.438000</ele>
        <time>2009-02-21T13:13:22Z</time>
      </trkpt>
      <trkpt lat="50.648307" lon="6.413211">
        <ele>363.516000</ele>
        <time>2009-02-21T13:13:31Z</time>
      </trkpt>
      <trkpt lat="50.648336" lon="6.413345">
        <ele>362.554000</ele>
        <time>2009-02-21T13:13:37Z</time>
      </trkpt>
      <trkpt lat="50.648556" lon="6.413813">
        <ele>360.151000</ele>
        <time>2009-02-21T13:14:04Z</time>
      </trkpt>
      <trkpt lat="50.648411" lon="6.413756">
        <ele>356.306000</ele>
        <time>2009-02-21T13:14:15Z</time>
      </trkpt>
      <trkpt lat="50.648088" lon="6.413834">
        <ele>351.980000</ele>
        <time>2009-02-21T13:14:38Z</time>
      </trkpt>
      <trkpt lat="50.647185" lon="6.413429">
        <ele>336.599000</ele>
        <time>2009-02-21T13:15:46Z</time>
      </trkpt>
      <trkpt lat="50.647009" lon="6.413314">
        <ele>332.754000</ele>
        <time>2009-02-21T13:16:00Z</time>
      </trkpt>
      <trkpt lat="50.646729" lon="6.413069">
        <ele>331.312000</ele>
        <time>2009-02-21T13:16:23Z</time>
      </trkpt>
      <trkpt lat="50.646606" lon="6.413005">
        <ele>330.350000</ele>
        <time>2009-02-21T13:16:33Z</time>
      </trkpt>
      <trkpt lat="50.646512" lon="6.413016">
        <ele>329.389000</ele>
        <time>2009-02-21T13:16:39Z</time>
      </trkpt>
      <trkpt lat="50.646514" lon="6.412864">
        <ele>329.389000</ele>
        <time>2009-02-21T13:16:46Z</time>
      </trkpt>
      <trkpt lat="50.646970" lon="6.412377">
        <ele>324.582000</ele>
        <time>2009-02-21T13:17:26Z</time>
      </trkpt>
      <trkpt lat="50.647323" lon="6.411153">
        <ele>319.776000</ele>
        <time>2009-02-21T13:18:28Z</time>
      </trkpt>
      <trkpt lat="50.647367" lon="6.411006">
        <ele>318.814000</ele>
        <time>2009-02-21T13:18:36Z</time>
      </trkpt>
      <trkpt lat="50.647440" lon="6.410460">
        <ele>316.411000</ele>
        <time>2009-02-21T13:19:01Z</time>
      </trkpt>
      <trkpt lat="50.647427" lon="6.409387">
        <ele>312.085000</ele>
        <time>2009-02-21T13:19:50Z</time>
      </trkpt>
      <trkpt lat="50.647275" lon="6.409086">
        <ele>309.201000</ele>
        <time>2009-02-21T13:20:08Z</time>
      </trkpt>
      <trkpt lat="50.647132" lon="6.409340">
        <ele>309.682000</ele>
        <time>2009-02-21T13:20:24Z</time>
      </trkpt>
      <trkpt lat="50.646274" lon="6.411296">
        <ele>309.682000</ele>
        <time>2009-02-21T13:22:13Z</time>
      </trkpt>
      <trkpt lat="50.645757" lon="6.410705">
        <ele>304.395000</ele>
        <time>2009-02-21T13:22:59Z</time>
      </trkpt>
      <trkpt lat="50.645291" lon="6.410252">
        <ele>301.030000</ele>
        <time>2009-02-21T13:23:39Z</time>
      </trkpt>
      <trkpt lat="50.645157" lon="6.410149">
        <ele>300.069000</ele>
        <time>2009-02-21T13:23:49Z</time>
      </trkpt>
      <trkpt lat="50.644184" lon="6.409587">
        <ele>300.069000</ele>
        <time>2009-02-21T13:25:04Z</time>
      </trkpt>
      <trkpt lat="50.644022" lon="6.409516">
        <ele>300.549000</ele>
        <time>2009-02-21T13:25:17Z</time>
      </trkpt>
      <trkpt lat="50.643491" lon="6.409477">
        <ele>301.030000</ele>
        <time>2009-02-21T13:25:55Z</time>
      </trkpt>
      <trkpt lat="50.643369" lon="6.409518">
        <ele>301.030000</ele>
        <time>2009-02-21T13:26:04Z</time>
      </trkpt>
      <trkpt lat="50.643078" lon="6.409446">
        <ele>301.991000</ele>
        <time>2009-02-21T13:26:25Z</time>
      </trkpt>
      <trkpt lat="50.643063" lon="6.407851">
        <ele>301.991000</ele>
        <time>2009-02-21T13:27:39Z</time>
      </trkpt>
      <trkpt lat="50.642991" lon="6.407327">
        <ele>301.030000</ele>
        <time>2009-02-21T13:28:03Z</time>
      </trkpt>
      <trkpt lat="50.642811" lon="6.407225">
        <ele>301.030000</ele>
        <time>2009-02-21T13:28:17Z</time>
      </trkpt>
      <trkpt lat="50.642075" lon="6.405567">
        <ele>301.030000</ele>
        <time>2009-02-21T13:29:50Z</time>
      </trkpt>
      <trkpt lat="50.641556" lon="6.404765">
        <ele>301.511000</ele>
        <time>2009-02-21T13:30:43Z</time>
      </trkpt>
      <trkpt lat="50.641461" lon="6.404681">
        <ele>301.511000</ele>
        <time>2009-02-21T13:30:50Z</time>
      </trkpt>
      <trkpt lat="50.640997" lon="6.404449">
        <ele>301.511000</ele>
        <time>2009-02-21T13:31:26Z</time>
      </trkpt>
      <trkpt lat="50.640495" lon="6.404539">
        <ele>301.991000</ele>
        <time>2009-02-21T13:32:02Z</time>
      </trkpt>
      <trkpt lat="50.639724" lon="6.404681">
        <ele>301.030000</ele>
        <time>2009-02-21T13:32:58Z</time>
      </trkpt>
      <trkpt lat="50.639737" lon="6.404324">
        <ele>300.549000</ele>
        <time>2009-02-21T13:33:15Z</time>
      </trkpt>
      <trkpt lat="50.639836" lon="6.404157">
        <ele>300.549000</ele>
        <time>2009-02-21T13:33:25Z</time>
      </trkpt>
      <trkpt lat="50.640096" lon="6.403587">
        <ele>300.069000</ele>
        <time>2009-02-21T13:33:58Z</time>
      </trkpt>
      <trkpt lat="50.640327" lon="6.403292">
        <ele>300.069000</ele>
        <time>2009-02-21T13:34:19Z</time>
      </trkpt>
      <trkpt lat="50.640488" lon="6.402997">
        <ele>299.588000</ele>
        <time>2009-02-21T13:34:37Z</time>
      </trkpt>
      <trkpt lat="50.641158" lon="6.402294">
        <ele>298.146000</ele>
        <time>2009-02-21T13:35:35Z</time>
      </trkpt>
      <trkpt lat="50.641289" lon="6.402219">
        <ele>298.146000</ele>
        <time>2009-02-21T13:35:45Z</time>
      </trkpt>
      <trkpt lat="50.641793" lon="6.402582">
        <ele>296.224000</ele>
        <time>2009-02-21T13:36:25Z</time>
      </trkpt>
      <trkpt lat="50.641919" lon="6.402640">
        <ele>296.224000</ele>
        <time>2009-02-21T13:36:35Z</time>
      </trkpt>
      <trkpt lat="50.641454" lon="6.401510">
        <ele>295.262000</ele>
        <time>2009-02-21T13:37:37Z</time>
      </trkpt>
      <trkpt lat="50.641252" lon="6.401279">
        <ele>295.262000</ele>
        <time>2009-02-21T13:37:55Z</time>
      </trkpt>
      <trkpt lat="50.641142" lon="6.401233">
        <ele>295.262000</ele>
        <time>2009-02-21T13:38:03Z</time>
      </trkpt>
      <trkpt lat="50.641017" lon="6.401223">
        <ele>295.262000</ele>
        <time>2009-02-21T13:38:12Z</time>
      </trkpt>
      <trkpt lat="50.640354" lon="6.401617">
        <ele>294.301000</ele>
        <time>2009-02-21T13:39:03Z</time>
      </trkpt>
      <trkpt lat="50.640169" lon="6.401869">
        <ele>294.301000</ele>
        <time>2009-02-21T13:39:21Z</time>
      </trkpt>
      <trkpt lat="50.637541" lon="6.404326">
        <ele>292.859000</ele>
        <time>2009-02-21T13:43:02Z</time>
      </trkpt>
      <trkpt lat="50.636758" lon="6.404667">
        <ele>293.339000</ele>
        <time>2009-02-21T13:44:01Z</time>
      </trkpt>
      <trkpt lat="50.636492" lon="6.404878">
        <ele>292.378000</ele>
        <time>2009-02-21T13:44:23Z</time>
      </trkpt>
      <trkpt lat="50.635705" lon="6.405854">
        <ele>290.456000</ele>
        <time>2009-02-21T13:45:35Z</time>
      </trkpt>
      <trkpt lat="50.635134" lon="6.406717">
        <ele>290.456000</ele>
        <time>2009-02-21T13:46:32Z</time>
      </trkpt>
      <trkpt lat="50.634654" lon="6.407090">
        <ele>292.859000</ele>
        <time>2009-02-21T13:47:11Z</time>
      </trkpt>
      <trkpt lat="50.634275" lon="6.407149">
        <ele>296.704000</ele>
        <time>2009-02-21T13:47:39Z</time>
      </trkpt>
      <trkpt lat="50.633026" lon="6.406928">
        <ele>0.000000</ele>
        <time>2009-02-21T13:49:10Z</time>
      </trkpt>
      <trkpt lat="50.632676" lon="6.406779">
        <ele>0.000000</ele>
        <time>2009-02-21T13:49:36Z</time>
      </trkpt>
      <trkpt lat="50.632676" lon="6.406758">
        <ele>0.000000</ele>
        <time>2009-02-21T13:49:37Z</time>
      </trkpt>
      <trkpt lat="50.632568" lon="6.406015">
        <ele>0.000000</ele>
        <time>2009-02-21T13:50:12Z</time>
      </trkpt>
      <trkpt lat="50.632730" lon="6.405377">
        <ele>0.000000</ele>
        <time>2009-02-21T13:50:43Z</time>
      </trkpt>
      <trkpt lat="50.632797" lon="6.404443">
        <ele>0.000000</ele>
        <time>2009-02-21T13:51:27Z</time>
      </trkpt>
      <trkpt lat="50.632595" lon="6.403465">
        <ele>0.000000</ele>
        <time>2009-02-21T13:52:14Z</time>
      </trkpt>
      <trkpt lat="50.632578" lon="6.403007">
        <ele>298.627000</ele>
        <time>2009-02-21T13:52:35Z</time>
      </trkpt>
      <trkpt lat="50.632318" lon="6.402080">
        <ele>296.224000</ele>
        <time>2009-02-21T13:53:21Z</time>
      </trkpt>
      <trkpt lat="50.632336" lon="6.401892">
        <ele>296.224000</ele>
        <time>2009-02-21T13:53:30Z</time>
      </trkpt>
      <trkpt lat="50.632407" lon="6.401686">
        <ele>295.743000</ele>
        <time>2009-02-21T13:53:41Z</time>
      </trkpt>
      <trkpt lat="50.632527" lon="6.401446">
        <ele>294.781000</ele>
        <time>2009-02-21T13:53:55Z</time>
      </trkpt>
      <trkpt lat="50.632597" lon="6.401404">
        <ele>293.820000</ele>
        <time>2009-02-21T13:54:00Z</time>
      </trkpt>
      <trkpt lat="50.632952" lon="6.400767">
        <ele>292.378000</ele>
        <time>2009-02-21T13:54:39Z</time>
      </trkpt>
      <trkpt lat="50.633248" lon="6.400503">
        <ele>292.859000</ele>
        <time>2009-02-21T13:55:04Z</time>
      </trkpt>
      <trkpt lat="50.633338" lon="6.400452">
        <ele>293.339000</ele>
        <time>2009-02-21T13:55:11Z</time>
      </trkpt>
      <trkpt lat="50.634435" lon="6.398954">
        <ele>295.743000</ele>
        <time>2009-02-21T13:56:56Z</time>
      </trkpt>
      <trkpt lat="50.634737" lon="6.398098">
        <ele>296.704000</ele>
        <time>2009-02-21T13:57:41Z</time>
      </trkpt>
      <trkpt lat="50.634820" lon="6.395657">
        <ele>296.704000</ele>
        <time>2009-02-21T13:59:33Z</time>
      </trkpt>
      <trkpt lat="50.634816" lon="6.395438">
        <ele>296.704000</ele>
        <time>2009-02-21T13:59:43Z</time>
      </trkpt>
      <trkpt lat="50.634441" lon="6.393300">
        <ele>0.000000</ele>
        <time>2009-02-21T14:01:25Z</time>
      </trkpt>
      <trkpt lat="50.634346" lon="6.392684">
        <ele>0.000000</ele>
        <time>2009-02-21T14:01:54Z</time>
      </trkpt>
      <trkpt lat="50.634495" lon="6.392344">
        <ele>0.000000</ele>
        <time>2009-02-21T14:02:13Z</time>
      </trkpt>
      <trkpt lat="50.635950" lon="6.391621">
        <ele>0.000000</ele>
        <time>2009-02-21T14:04:03Z</time>
      </trkpt>
      <trkpt lat="50.636273" lon="6.391026">
        <ele>0.000000</ele>
        <time>2009-02-21T14:04:39Z</time>
      </trkpt>
      <trkpt lat="50.636255" lon="6.391058">
        <ele>0.000000</ele>
        <time>2009-02-21T14:04:41Z</time>
      </trkpt>
      <trkpt lat="50.636615" lon="6.390860">
        <ele>0.000000</ele>
        <time>2009-02-21T14:05:09Z</time>
      </trkpt>
      <trkpt lat="50.638007" lon="6.388183">
        <ele>0.000000</ele>
        <time>2009-02-21T14:07:48Z</time>
      </trkpt>
      <trkpt lat="50.638842" lon="6.387376">
        <ele>0.000000</ele>
        <time>2009-02-21T14:08:59Z</time>
      </trkpt>
      <trkpt lat="50.639362" lon="6.385786">
        <ele>297.665000</ele>
        <time>2009-02-21T14:10:21Z</time>
      </trkpt>
      <trkpt lat="50.639176" lon="6.385111">
        <ele>296.224000</ele>
        <time>2009-02-21T14:10:55Z</time>
      </trkpt>
      <trkpt lat="50.638292" lon="6.386232">
        <ele>295.743000</ele>
        <time>2009-02-21T14:12:17Z</time>
      </trkpt>
      <trkpt lat="50.638237" lon="6.386334">
        <ele>295.743000</ele>
        <time>2009-02-21T14:12:23Z</time>
      </trkpt>
      <trkpt lat="50.637973" lon="6.386549">
        <ele>295.743000</ele>
        <time>2009-02-21T14:12:44Z</time>
      </trkpt>
      <trkpt lat="50.637754" lon="6.386812">
        <ele>295.262000</ele>
        <time>2009-02-21T14:13:04Z</time>
      </trkpt>
      <trkpt lat="50.636650" lon="6.388246">
        <ele>295.743000</ele>
        <time>2009-02-21T14:14:48Z</time>
      </trkpt>
      <trkpt lat="50.636176" lon="6.389234">
        <ele>300.069000</ele>
        <time>2009-02-21T14:15:45Z</time>
      </trkpt>
      <trkpt lat="50.636048" lon="6.389279">
        <ele>300.549000</ele>
        <time>2009-02-21T14:15:54Z</time>
      </trkpt>
      <trkpt lat="50.635736" lon="6.389523">
        <ele>301.030000</ele>
        <time>2009-02-21T14:16:19Z</time>
      </trkpt>
      <trkpt lat="50.633986" lon="6.390160">
        <ele>287.571000</ele>
        <time>2009-02-21T14:18:29Z</time>
      </trkpt>
      <trkpt lat="50.633634" lon="6.390321">
        <ele>289.014000</ele>
        <time>2009-02-21T14:18:56Z</time>
      </trkpt>
      <trkpt lat="50.633411" lon="6.390804">
        <ele>281.804000</ele>
        <time>2009-02-21T14:19:23Z</time>
      </trkpt>
      <trkpt lat="50.633289" lon="6.390825">
        <ele>281.804000</ele>
        <time>2009-02-21T14:19:32Z</time>
      </trkpt>
      <trkpt lat="50.633077" lon="6.390424">
        <ele>281.804000</ele>
        <time>2009-02-21T14:19:56Z</time>
      </trkpt>
      <trkpt lat="50.633017" lon="6.390093">
        <ele>282.284000</ele>
        <time>2009-02-21T14:20:12Z</time>
      </trkpt>
      <trkpt lat="50.632748" lon="6.389950">
        <ele>284.688000</ele>
        <time>2009-02-21T14:20:33Z</time>
      </trkpt>
      <trkpt lat="50.632368" lon="6.390032">
        <ele>285.168000</ele>
        <time>2009-02-21T14:21:00Z</time>
      </trkpt>
      <trkpt lat="50.632026" lon="6.389824">
        <ele>285.168000</ele>
        <time>2009-02-21T14:21:27Z</time>
      </trkpt>
      <trkpt lat="50.631706" lon="6.389404">
        <ele>284.207000</ele>
        <time>2009-02-21T14:21:57Z</time>
      </trkpt>
      <trkpt lat="50.631650" lon="6.389034">
        <ele>285.168000</ele>
        <time>2009-02-21T14:22:15Z</time>
      </trkpt>
      <trkpt lat="50.631653" lon="6.388806">
        <ele>287.571000</ele>
        <time>2009-02-21T14:22:25Z</time>
      </trkpt>
      <trkpt lat="50.631457" lon="6.388360">
        <ele>289.975000</ele>
        <time>2009-02-21T14:22:50Z</time>
      </trkpt>
      <trkpt lat="50.631238" lon="6.387733">
        <ele>290.936000</ele>
        <time>2009-02-21T14:23:23Z</time>
      </trkpt>
      <trkpt lat="50.631096" lon="6.386920">
        <ele>290.456000</ele>
        <time>2009-02-21T14:24:01Z</time>
      </trkpt>
      <trkpt lat="50.631049" lon="6.386776">
        <ele>290.456000</ele>
        <time>2009-02-21T14:24:09Z</time>
      </trkpt>
      <trkpt lat="50.630391" lon="6.386818">
        <ele>289.494000</ele>
        <time>2009-02-21T14:24:57Z</time>
      </trkpt>
      <trkpt lat="50.630219" lon="6.387475">
        <ele>284.688000</ele>
        <time>2009-02-21T14:25:29Z</time>
      </trkpt>
      <trkpt lat="50.630129" lon="6.387557">
        <ele>284.688000</ele>
        <time>2009-02-21T14:25:37Z</time>
      </trkpt>
      <trkpt lat="50.629905" lon="6.387350">
        <ele>284.688000</ele>
        <time>2009-02-21T14:25:56Z</time>
      </trkpt>
      <trkpt lat="50.629476" lon="6.386607">
        <ele>284.688000</ele>
        <time>2009-02-21T14:26:42Z</time>
      </trkpt>
      <trkpt lat="50.628405" lon="6.385356">
        <ele>286.130000</ele>
        <time>2009-02-21T14:28:18Z</time>
      </trkpt>
      <trkpt lat="50.628216" lon="6.385139">
        <ele>286.130000</ele>
        <time>2009-02-21T14:28:35Z</time>
      </trkpt>
      <trkpt lat="50.628143" lon="6.384970">
        <ele>286.130000</ele>
        <time>2009-02-21T14:28:44Z</time>
      </trkpt>
      <trkpt lat="50.628047" lon="6.384584">
        <ele>286.610000</ele>
        <time>2009-02-21T14:29:03Z</time>
      </trkpt>
      <trkpt lat="50.627916" lon="6.384177">
        <ele>286.610000</ele>
        <time>2009-02-21T14:29:24Z</time>
      </trkpt>
      <trkpt lat="50.627832" lon="6.383641">
        <ele>287.091000</ele>
        <time>2009-02-21T14:29:50Z</time>
      </trkpt>
      <trkpt lat="50.627741" lon="6.382910">
        <ele>289.975000</ele>
        <time>2009-02-21T14:30:24Z</time>
      </trkpt>
      <trkpt lat="50.627694" lon="6.382839">
        <ele>290.936000</ele>
        <time>2009-02-21T14:30:29Z</time>
      </trkpt>
      <trkpt lat="50.627399" lon="6.382836">
        <ele>291.417000</ele>
        <time>2009-02-21T14:30:50Z</time>
      </trkpt>
      <trkpt lat="50.627249" lon="6.382802">
        <ele>304.395000</ele>
        <time>2009-02-21T14:31:01Z</time>
      </trkpt>
      <trkpt lat="50.626829" lon="6.382885">
        <ele>308.720000</ele>
        <time>2009-02-21T14:31:32Z</time>
      </trkpt>
      <trkpt lat="50.626756" lon="6.382876">
        <ele>309.682000</ele>
        <time>2009-02-21T14:31:37Z</time>
      </trkpt>
      <trkpt lat="50.626824" lon="6.382470">
        <ele>311.124000</ele>
        <time>2009-02-21T14:31:56Z</time>
      </trkpt>
      <trkpt lat="50.627023" lon="6.381037">
        <ele>316.411000</ele>
        <time>2009-02-21T14:33:04Z</time>
      </trkpt>
      <trkpt lat="50.627110" lon="6.380251">
        <ele>321.218000</ele>
        <time>2009-02-21T14:33:40Z</time>
      </trkpt>
      <trkpt lat="50.627354" lon="6.378464">
        <ele>324.582000</ele>
        <time>2009-02-21T14:35:04Z</time>
      </trkpt>
      <trkpt lat="50.627406" lon="6.377009">
        <ele>328.428000</ele>
        <time>2009-02-21T14:36:11Z</time>
      </trkpt>
      <trkpt lat="50.627615" lon="6.376307">
        <ele>330.831000</ele>
        <time>2009-02-21T14:36:47Z</time>
      </trkpt>
      <trkpt lat="50.627754" lon="6.376229">
        <ele>331.312000</ele>
        <time>2009-02-21T14:36:57Z</time>
      </trkpt>
      <trkpt lat="50.627886" lon="6.376467">
        <ele>332.754000</ele>
        <time>2009-02-21T14:37:12Z</time>
      </trkpt>
      <trkpt lat="50.627923" lon="6.376601">
        <ele>333.715000</ele>
        <time>2009-02-21T14:37:19Z</time>
      </trkpt>
      <trkpt lat="50.628078" lon="6.377270">
        <ele>336.118000</ele>
        <time>2009-02-21T14:37:51Z</time>
      </trkpt>
      <trkpt lat="50.628282" lon="6.378813">
        <ele>343.809000</ele>
        <time>2009-02-21T14:39:04Z</time>
      </trkpt>
      <trkpt lat="50.628412" lon="6.379826">
        <ele>350.057000</ele>
        <time>2009-02-21T14:39:51Z</time>
      </trkpt>
      <trkpt lat="50.628649" lon="6.380669">
        <ele>354.383000</ele>
        <time>2009-02-21T14:40:33Z</time>
      </trkpt>
      <trkpt lat="50.629101" lon="6.381681">
        <ele>356.306000</ele>
        <time>2009-02-21T14:41:30Z</time>
      </trkpt>
      <trkpt lat="50.629481" lon="6.382194">
        <ele>358.228000</ele>
        <time>2009-02-21T14:42:07Z</time>
      </trkpt>
      <trkpt lat="50.629930" lon="6.382700">
        <ele>359.670000</ele>
        <time>2009-02-21T14:42:46Z</time>
      </trkpt>
      <trkpt lat="50.630137" lon="6.382802">
        <ele>359.670000</ele>
        <time>2009-02-21T14:43:02Z</time>
      </trkpt>
      <trkpt lat="50.630557" lon="6.382844">
        <ele>361.593000</ele>
        <time>2009-02-21T14:43:33Z</time>
      </trkpt>
      <trkpt lat="50.630865" lon="6.382743">
        <ele>363.996000</ele>
        <time>2009-02-21T14:43:55Z</time>
      </trkpt>
      <trkpt lat="50.631592" lon="6.382207">
        <ele>366.400000</ele>
        <time>2009-02-21T14:44:54Z</time>
      </trkpt>
      <trkpt lat="50.631877" lon="6.382036">
        <ele>366.400000</ele>
        <time>2009-02-21T14:45:16Z</time>
      </trkpt>
      <trkpt lat="50.632057" lon="6.382005">
        <ele>367.842000</ele>
        <time>2009-02-21T14:45:29Z</time>
      </trkpt>
      <trkpt lat="50.632232" lon="6.382031">
        <ele>368.322000</ele>
        <time>2009-02-21T14:45:41Z</time>
      </trkpt>
      <trkpt lat="50.632370" lon="6.382072">
        <ele>369.284000</ele>
        <time>2009-02-21T14:45:52Z</time>
      </trkpt>
      <trkpt lat="50.632493" lon="6.382232">
        <ele>371.206000</ele>
        <time>2009-02-21T14:46:03Z</time>
      </trkpt>
      <trkpt lat="50.632511" lon="6.382370">
        <ele>370.245000</ele>
        <time>2009-02-21T14:46:10Z</time>
      </trkpt>
      <trkpt lat="50.632755" lon="6.384581">
        <ele>360.632000</ele>
        <time>2009-02-21T14:47:53Z</time>
      </trkpt>
      <trkpt lat="50.632734" lon="6.385550">
        <ele>359.190000</ele>
        <time>2009-02-21T14:48:37Z</time>
      </trkpt>
      <trkpt lat="50.632752" lon="6.385865">
        <ele>358.709000</ele>
        <time>2009-02-21T14:48:52Z</time>
      </trkpt>
      <trkpt lat="50.632833" lon="6.386019">
        <ele>360.632000</ele>
        <time>2009-02-21T14:49:01Z</time>
      </trkpt>
      <trkpt lat="50.633122" lon="6.386623">
        <ele>365.438000</ele>
        <time>2009-02-21T14:49:36Z</time>
      </trkpt>
      <trkpt lat="50.633449" lon="6.387569">
        <ele>370.726000</ele>
        <time>2009-02-21T14:50:25Z</time>
      </trkpt>
      <trkpt lat="50.633587" lon="6.388062">
        <ele>372.167000</ele>
        <time>2009-02-21T14:50:50Z</time>
      </trkpt>
      <trkpt lat="50.633819" lon="6.388591">
        <ele>374.571000</ele>
        <time>2009-02-21T14:51:19Z</time>
      </trkpt>
      <trkpt lat="50.634022" lon="6.388718">
        <ele>375.052000</ele>
        <time>2009-02-21T14:51:35Z</time>
      </trkpt>
      <trkpt lat="50.635955" lon="6.387484">
        <ele>369.284000</ele>
        <time>2009-02-21T14:54:06Z</time>
      </trkpt>
      <trkpt lat="50.636103" lon="6.387137">
        <ele>367.361000</ele>
        <time>2009-02-21T14:54:25Z</time>
      </trkpt>
      <trkpt lat="50.636414" lon="6.386642">
        <ele>364.958000</ele>
        <time>2009-02-21T14:54:57Z</time>
      </trkpt>
      <trkpt lat="50.636623" lon="6.386515">
        <ele>363.035000</ele>
        <time>2009-02-21T14:55:13Z</time>
      </trkpt>
      <trkpt lat="50.637120" lon="6.386140">
        <ele>357.748000</ele>
        <time>2009-02-21T14:55:53Z</time>
      </trkpt>
      <trkpt lat="50.637985" lon="6.385127">
        <ele>348.135000</ele>
        <time>2009-02-21T14:57:11Z</time>
      </trkpt>
      <trkpt lat="50.638276" lon="6.384567">
        <ele>345.731000</ele>
        <time>2009-02-21T14:57:45Z</time>
      </trkpt>
      <trkpt lat="50.638441" lon="6.384449">
        <ele>344.289000</ele>
        <time>2009-02-21T14:57:58Z</time>
      </trkpt>
      <trkpt lat="50.639927" lon="6.383567">
        <ele>338.041000</ele>
        <time>2009-02-21T14:59:53Z</time>
      </trkpt>
      <trkpt lat="50.640310" lon="6.382214">
        <ele>336.599000</ele>
        <time>2009-02-21T15:01:01Z</time>
      </trkpt>
      <trkpt lat="50.640349" lon="6.380547">
        <ele>330.350000</ele>
        <time>2009-02-21T15:02:17Z</time>
      </trkpt>
      <trkpt lat="50.640462" lon="6.380237">
        <ele>330.350000</ele>
        <time>2009-02-21T15:02:34Z</time>
      </trkpt>
      <trkpt lat="50.640625" lon="6.380282">
        <ele>331.312000</ele>
        <time>2009-02-21T15:02:46Z</time>
      </trkpt>
      <trkpt lat="50.641225" lon="6.379920">
        <ele>335.637000</ele>
        <time>2009-02-21T15:03:32Z</time>
      </trkpt>
      <trkpt lat="50.642901" lon="6.378867">
        <ele>351.980000</ele>
        <time>2009-02-21T15:05:43Z</time>
      </trkpt>
      <trkpt lat="50.643998" lon="6.377545">
        <ele>363.035000</ele>
        <time>2009-02-21T15:07:23Z</time>
      </trkpt>
      <trkpt lat="50.644607" lon="6.376848">
        <ele>368.803000</ele>
        <time>2009-02-21T15:08:17Z</time>
      </trkpt>
      <trkpt lat="50.645114" lon="6.376489">
        <ele>372.648000</ele>
        <time>2009-02-21T15:08:57Z</time>
      </trkpt>
      <trkpt lat="50.645958" lon="6.376258">
        <ele>377.455000</ele>
        <time>2009-02-21T15:09:59Z</time>
      </trkpt>
      <trkpt lat="50.647070" lon="6.376236">
        <ele>386.107000</ele>
        <time>2009-02-21T15:11:20Z</time>
      </trkpt>
      <trkpt lat="50.647345" lon="6.376305">
        <ele>387.549000</ele>
        <time>2009-02-21T15:11:40Z</time>
      </trkpt>
      <trkpt lat="50.647457" lon="6.376403">
        <ele>388.029000</ele>
        <time>2009-02-21T15:11:49Z</time>
      </trkpt>
      <trkpt lat="50.648114" lon="6.376962">
        <ele>396.201000</ele>
        <time>2009-02-21T15:12:43Z</time>
      </trkpt>
      <trkpt lat="50.648246" lon="6.377295">
        <ele>398.123000</ele>
        <time>2009-02-21T15:13:01Z</time>
      </trkpt>
      <trkpt lat="50.649716" lon="6.379420">
        <ele>419.272000</ele>
        <time>2009-02-21T15:15:26Z</time>
      </trkpt>
      <trkpt lat="50.650302" lon="6.379764">
        <ele>426.001000</ele>
        <time>2009-02-21T15:16:11Z</time>
      </trkpt>
      <trkpt lat="50.650618" lon="6.380255">
        <ele>430.808000</ele>
        <time>2009-02-21T15:16:43Z</time>
      </trkpt>
      <trkpt lat="50.650719" lon="6.380431">
        <ele>431.769000</ele>
        <time>2009-02-21T15:16:54Z</time>
      </trkpt>
      <trkpt lat="50.651542" lon="6.382458">
        <ele>445.228000</ele>
        <time>2009-02-21T15:18:44Z</time>
      </trkpt>
      <trkpt lat="50.652031" lon="6.383195">
        <ele>451.476000</ele>
        <time>2009-02-21T15:19:33Z</time>
      </trkpt>
      <trkpt lat="50.651777" lon="6.383128">
        <ele>451.476000</ele>
        <time>2009-02-21T15:19:52Z</time>
      </trkpt>
      <trkpt lat="50.650281" lon="6.381655">
        <ele>457.244000</ele>
        <time>2009-02-21T15:22:00Z</time>
      </trkpt>
      <trkpt lat="50.649177" lon="6.381713">
        <ele>460.609000</ele>
        <time>2009-02-21T15:23:20Z</time>
      </trkpt>
      <trkpt lat="50.648676" lon="6.381677">
        <ele>461.570000</ele>
        <time>2009-02-21T15:23:56Z</time>
      </trkpt>
      <trkpt lat="50.648336" lon="6.381202">
        <ele>458.206000</ele>
        <time>2009-02-21T15:24:29Z</time>
      </trkpt>
      <trkpt lat="50.647882" lon="6.380270">
        <ele>454.841000</ele>
        <time>2009-02-21T15:25:23Z</time>
      </trkpt>
      <trkpt lat="50.647236" lon="6.379411">
        <ele>453.880000</ele>
        <time>2009-02-21T15:26:24Z</time>
      </trkpt>
      <trkpt lat="50.646969" lon="6.379340">
        <ele>453.880000</ele>
        <time>2009-02-21T15:26:43Z</time>
      </trkpt>
      <trkpt lat="50.646462" lon="6.379258">
        <ele>452.918000</ele>
        <time>2009-02-21T15:27:20Z</time>
      </trkpt>
      <trkpt lat="50.645424" lon="6.380745">
        <ele>444.747000</ele>
        <time>2009-02-21T15:29:02Z</time>
      </trkpt>
      <trkpt lat="50.644484" lon="6.382073">
        <ele>443.786000</ele>
        <time>2009-02-21T15:30:33Z</time>
      </trkpt>
      <trkpt lat="50.643929" lon="6.382718">
        <ele>446.189000</ele>
        <time>2009-02-21T15:31:23Z</time>
      </trkpt>
      <trkpt lat="50.643799" lon="6.383062">
        <ele>447.150000</ele>
        <time>2009-02-21T15:31:42Z</time>
      </trkpt>
      <trkpt lat="50.643662" lon="6.383613">
        <ele>445.228000</ele>
        <time>2009-02-21T15:32:09Z</time>
      </trkpt>
      <trkpt lat="50.643721" lon="6.385299">
        <ele>437.057000</ele>
        <time>2009-02-21T15:33:26Z</time>
      </trkpt>
      <trkpt lat="50.643770" lon="6.385466">
        <ele>436.576000</ele>
        <time>2009-02-21T15:33:35Z</time>
      </trkpt>
      <trkpt lat="50.643827" lon="6.385816">
        <ele>435.615000</ele>
        <time>2009-02-21T15:33:51Z</time>
      </trkpt>
      <trkpt lat="50.643888" lon="6.385963">
        <ele>435.615000</ele>
        <time>2009-02-21T15:33:59Z</time>
      </trkpt>
      <trkpt lat="50.644167" lon="6.386274">
        <ele>437.537000</ele>
        <time>2009-02-21T15:34:24Z</time>
      </trkpt>
      <trkpt lat="50.645162" lon="6.387024">
        <ele>441.382000</ele>
        <time>2009-02-21T15:35:44Z</time>
      </trkpt>
      <trkpt lat="50.645421" lon="6.387286">
        <ele>442.344000</ele>
        <time>2009-02-21T15:36:06Z</time>
      </trkpt>
      <trkpt lat="50.645812" lon="6.387915">
        <ele>446.189000</ele>
        <time>2009-02-21T15:36:47Z</time>
      </trkpt>
      <trkpt lat="50.646189" lon="6.388717">
        <ele>450.515000</ele>
        <time>2009-02-21T15:37:32Z</time>
      </trkpt>
      <trkpt lat="50.646687" lon="6.389633">
        <ele>452.438000</ele>
        <time>2009-02-21T15:38:28Z</time>
      </trkpt>
      <trkpt lat="50.646923" lon="6.389830">
        <ele>452.918000</ele>
        <time>2009-02-21T15:38:47Z</time>
      </trkpt>
      <trkpt lat="50.647048" lon="6.389903">
        <ele>453.880000</ele>
        <time>2009-02-21T15:38:57Z</time>
      </trkpt>
      <trkpt lat="50.647357" lon="6.389989">
        <ele>454.841000</ele>
        <time>2009-02-21T15:39:19Z</time>
      </trkpt>
      <trkpt lat="50.647553" lon="6.389990">
        <ele>454.360000</ele>
        <time>2009-02-21T15:39:34Z</time>
      </trkpt>
      <trkpt lat="50.647781" lon="6.389953">
        <ele>454.841000</ele>
        <time>2009-02-21T15:39:50Z</time>
      </trkpt>
      <trkpt lat="50.648547" lon="6.390205">
        <ele>456.764000</ele>
        <time>2009-02-21T15:40:47Z</time>
      </trkpt>
      <trkpt lat="50.649077" lon="6.390332">
        <ele>459.167000</ele>
        <time>2009-02-21T15:41:26Z</time>
      </trkpt>
      <trkpt lat="50.649539" lon="6.390460">
        <ele>460.609000</ele>
        <time>2009-02-21T15:42:00Z</time>
      </trkpt>
      <trkpt lat="50.649995" lon="6.390583">
        <ele>462.051000</ele>
        <time>2009-02-21T15:42:33Z</time>
      </trkpt>
      <trkpt lat="50.650682" lon="6.391291">
        <ele>465.416000</ele>
        <time>2009-02-21T15:43:33Z</time>
      </trkpt>
      <trkpt lat="50.651649" lon="6.392720">
        <ele>468.299000</ele>
        <time>2009-02-21T15:45:08Z</time>
      </trkpt>
      <trkpt lat="50.651904" lon="6.393257">
        <ele>468.299000</ele>
        <time>2009-02-21T15:45:39Z</time>
      </trkpt>
      <trkpt lat="50.651989" lon="6.393371">
        <ele>467.819000</ele>
        <time>2009-02-21T15:45:47Z</time>
      </trkpt>
      <trkpt lat="50.652150" lon="6.393507">
        <ele>466.857000</ele>
        <time>2009-02-21T15:46:01Z</time>
      </trkpt>
      <trkpt lat="50.652663" lon="6.394060">
        <ele>463.493000</ele>
        <time>2009-02-21T15:46:45Z</time>
      </trkpt>
      <trkpt lat="50.652739" lon="6.394287">
        <ele>462.051000</ele>
        <time>2009-02-21T15:46:57Z</time>
      </trkpt>
      <trkpt lat="50.652497" lon="6.394390">
        <ele>459.648000</ele>
        <time>2009-02-21T15:47:15Z</time>
      </trkpt>
      <trkpt lat="50.652209" lon="6.394898">
        <ele>456.283000</ele>
        <time>2009-02-21T15:47:47Z</time>
      </trkpt>
      <trkpt lat="50.652404" lon="6.395085">
        <ele>451.957000</ele>
        <time>2009-02-21T15:48:03Z</time>
      </trkpt>
      <trkpt lat="50.652539" lon="6.395149">
        <ele>450.515000</ele>
        <time>2009-02-21T15:48:13Z</time>
      </trkpt>
      <trkpt lat="50.652780" lon="6.395409">
        <ele>449.073000</ele>
        <time>2009-02-21T15:48:35Z</time>
      </trkpt>
      <trkpt lat="50.653638" lon="6.397217">
        <ele>450.034000</ele>
        <time>2009-02-21T15:50:18Z</time>
      </trkpt>
      <trkpt lat="50.654043" lon="6.397948">
        <ele>450.515000</ele>
        <time>2009-02-21T15:51:03Z</time>
      </trkpt>
      <trkpt lat="50.654224" lon="6.398334">
        <ele>450.515000</ele>
        <time>2009-02-21T15:51:25Z</time>
      </trkpt>
      <trkpt lat="50.654835" lon="6.399548">
        <ele>449.554000</ele>
        <time>2009-02-21T15:52:36Z</time>
      </trkpt>
      <trkpt lat="50.655168" lon="6.399910">
        <ele>449.073000</ele>
        <time>2009-02-21T15:53:05Z</time>
      </trkpt>
      <trkpt lat="50.656101" lon="6.400685">
        <ele>448.112000</ele>
        <time>2009-02-21T15:54:22Z</time>
      </trkpt>
      <trkpt lat="50.656440" lon="6.401018">
        <ele>449.554000</ele>
        <time>2009-02-21T15:54:50Z</time>
      </trkpt>
      <trkpt lat="50.656528" lon="6.401159">
        <ele>450.034000</ele>
        <time>2009-02-21T15:54:59Z</time>
      </trkpt>
      <trkpt lat="50.656799" lon="6.401854">
        <ele>450.996000</ele>
        <time>2009-02-21T15:55:37Z</time>
      </trkpt>
      <trkpt lat="50.656897" lon="6.402270">
        <ele>450.996000</ele>
        <time>2009-02-21T15:55:57Z</time>
      </trkpt>
      <trkpt lat="50.657189" lon="6.404036">
        <ele>449.073000</ele>
        <time>2009-02-21T15:57:21Z</time>
      </trkpt>
      <trkpt lat="50.657080" lon="6.404627">
        <ele>447.631000</ele>
        <time>2009-02-21T15:57:49Z</time>
      </trkpt>
      <trkpt lat="50.656779" lon="6.406046">
        <ele>440.421000</ele>
        <time>2009-02-21T15:58:58Z</time>
      </trkpt>
      <trkpt lat="50.656586" lon="6.406989">
        <ele>439.940000</ele>
        <time>2009-02-21T15:59:43Z</time>
      </trkpt>
      <trkpt lat="50.656454" lon="6.407071">
        <ele>438.979000</ele>
        <time>2009-02-21T15:59:54Z</time>
      </trkpt>
      <trkpt lat="50.656347" lon="6.407034">
        <ele>438.499000</ele>
        <time>2009-02-21T16:00:02Z</time>
      </trkpt>
      <trkpt lat="50.655939" lon="6.406974">
        <ele>436.576000</ele>
        <time>2009-02-21T16:00:31Z</time>
      </trkpt>
      <trkpt lat="50.655874" lon="6.407792">
        <ele>437.057000</ele>
        <time>2009-02-21T16:01:09Z</time>
      </trkpt>
      <trkpt lat="50.655768" lon="6.408685">
        <ele>434.173000</ele>
        <time>2009-02-21T16:01:51Z</time>
      </trkpt>
      <trkpt lat="50.655752" lon="6.409016">
        <ele>431.769000</ele>
        <time>2009-02-21T16:02:06Z</time>
      </trkpt>
      <trkpt lat="50.655799" lon="6.409914">
        <ele>423.598000</ele>
        <time>2009-02-21T16:02:47Z</time>
      </trkpt>
      <trkpt lat="50.655863" lon="6.411002">
        <ele>417.830000</ele>
        <time>2009-02-21T16:03:37Z</time>
      </trkpt>
      <trkpt lat="50.655869" lon="6.411445">
        <ele>415.907000</ele>
        <time>2009-02-21T16:03:58Z</time>
      </trkpt>
      <trkpt lat="50.655798" lon="6.412490">
        <ele>413.985000</ele>
        <time>2009-02-21T16:04:46Z</time>
      </trkpt>
      <trkpt lat="50.655687" lon="6.412948">
        <ele>413.504000</ele>
        <time>2009-02-21T16:05:09Z</time>
      </trkpt>
      <trkpt lat="50.655757" lon="6.413082">
        <ele>414.465000</ele>
        <time>2009-02-21T16:05:17Z</time>
      </trkpt>
      <trkpt lat="50.656039" lon="6.413304">
        <ele>415.427000</ele>
        <time>2009-02-21T16:05:39Z</time>
      </trkpt>
      <trkpt lat="50.656470" lon="6.413350">
        <ele>414.946000</ele>
        <time>2009-02-21T16:06:11Z</time>
      </trkpt>
    </trkseg>
  </trk>

</gpx>
